UAL1582 EGLL-KPHX
Flight info
| Callsign | UAL1582 |
|---|---|
| Flight time | N/A |
| Altitude | 36000 |
| Route | EGLL/09R ULTI1J ULTIB T420 TNT UL28 PENIL DCT DEJEM DCT OZRAT DCT WETFI DCT REVNU DCT PIKIL DCT 56N020W DCT 55N030W DCT 53N040W DCT 51N050W DCT ALLRY N482C MIILS Q907 SIKBO Q905 HOCKE Q824 FNT J547 OBK J100 DBQ J144 DSM J25 MCI J24 SLN J18 KENTO Q176 CIM J96 GUP EAGUL6 KPHX/ZERLO I26 |
| Aircraft | B772/H-SDE2E3FGHIJ5LORVWXY/LB1D1 |
Departure
| Time | 2026-05-08 06:22 |
|---|---|
| Airport | London Heathrow Airport (EGLL) |
Arrival
| Time | N/A |
|---|---|
| Airport | Phoenix Sky Harbor International Airport (KPHX) |
| Time | Latitude | Longitude | Altitude | Speed | Heading |
|---|---|---|---|---|---|
| 2026-05-08 05:58 | 51.46111 | -0.45548 | 90 ft | 0 kts | 236° |
| 2026-05-08 06:12 | 51.46111 | -0.45547 | 90 ft | 2 kts | 236° |
| 2026-05-08 06:12 | 51.46125 | -0.45513 | 93 ft | 4 kts | 236° |
| 2026-05-08 06:12 | 51.46140 | -0.45477 | 92 ft | 4 kts | 236° |
| 2026-05-08 06:12 | 51.46152 | -0.45447 | 93 ft | 4 kts | 255° |
| 2026-05-08 06:13 | 51.46153 | -0.45418 | 91 ft | 4 kts | 303° |
| 2026-05-08 06:13 | 51.46135 | -0.45391 | 93 ft | 4 kts | 327° |
| 2026-05-08 06:13 | 51.46125 | -0.45380 | 92 ft | 0 kts | 326° |
| 2026-05-08 06:15 | 51.46138 | -0.45394 | 93 ft | 8 kts | 326° |
| 2026-05-08 06:15 | 51.46204 | -0.45466 | 94 ft | 12 kts | 326° |
| 2026-05-08 06:15 | 51.46275 | -0.45542 | 95 ft | 12 kts | 326° |
| 2026-05-08 06:16 | 51.46319 | -0.45652 | 93 ft | 12 kts | 283° |
| 2026-05-08 06:16 | 51.46326 | -0.45787 | 93 ft | 12 kts | 270° |
| 2026-05-08 06:16 | 51.46326 | -0.45923 | 93 ft | 12 kts | 270° |
| 2026-05-08 06:16 | 51.46326 | -0.46059 | 93 ft | 12 kts | 269° |
| 2026-05-08 06:17 | 51.46321 | -0.46398 | 92 ft | 16 kts | 269° |
| 2026-05-08 06:17 | 51.46321 | -0.46578 | 93 ft | 16 kts | 270° |
| 2026-05-08 06:17 | 51.46321 | -0.46758 | 90 ft | 16 kts | 270° |
| 2026-05-08 06:18 | 51.46322 | -0.46938 | 92 ft | 16 kts | 270° |
| 2026-05-08 06:18 | 51.46323 | -0.47118 | 90 ft | 16 kts | 270° |
| 2026-05-08 06:18 | 51.46324 | -0.47297 | 90 ft | 16 kts | 273° |
| 2026-05-08 06:18 | 51.46340 | -0.47474 | 90 ft | 16 kts | 274° |
| 2026-05-08 06:19 | 51.46331 | -0.47652 | 93 ft | 16 kts | 250° |
| 2026-05-08 06:19 | 51.46274 | -0.47823 | 92 ft | 19 kts | 243° |
| 2026-05-08 06:19 | 51.46253 | -0.48039 | 92 ft | 21 kts | 269° |
| 2026-05-08 06:19 | 51.46251 | -0.48293 | 85 ft | 24 kts | 270° |
| 2026-05-08 06:20 | 51.46252 | -0.48549 | 89 ft | 20 kts | 276° |
| 2026-05-08 06:20 | 51.46295 | -0.48692 | 91 ft | 0 kts | 316° |
| 2026-05-08 06:20 | 51.46299 | -0.48698 | 91 ft | 5 kts | 319° |
| 2026-05-08 06:21 | 51.46378 | -0.48747 | 90 ft | 18 kts | 353° |
| 2026-05-08 06:21 | 51.46472 | -0.48662 | 94 ft | 18 kts | 78° |
| 2026-05-08 06:21 | 51.46477 | -0.48256 | 94 ft | 71 kts | 90° |
| 2026-05-08 06:21 | 51.46481 | -0.47034 | 89 ft | 146 kts | 90° |
| 2026-05-08 06:22 | 51.46502 | -0.45137 | 322 ft | 187 kts | 88° |
| 2026-05-08 06:22 | 51.46522 | -0.42957 | 1049 ft | 200 kts | 94° |
| 2026-05-08 06:22 | 51.46701 | -0.40687 | 1778 ft | 215 kts | 65° |
| 2026-05-08 06:22 | 51.47667 | -0.38698 | 2070 ft | 237 kts | 50° |
| 2026-05-08 06:23 | 51.48784 | -0.36620 | 2420 ft | 252 kts | 52° |
| 2026-05-08 06:23 | 51.49939 | -0.34430 | 3003 ft | 259 kts | 51° |
| 2026-05-08 06:23 | 51.51117 | -0.32211 | 3683 ft | 263 kts | 51° |
| 2026-05-08 06:23 | 51.52248 | -0.29910 | 4313 ft | 262 kts | 63° |
| 2026-05-08 06:24 | 51.52911 | -0.27173 | 4821 ft | 265 kts | 74° |
| 2026-05-08 06:24 | 51.53290 | -0.25296 | 5238 ft | 268 kts | 73° |
| 2026-05-08 06:24 | 51.53899 | -0.22467 | 5865 ft | 269 kts | 72° |
| 2026-05-08 06:24 | 51.54629 | -0.19689 | 5975 ft | 272 kts | 54° |
| 2026-05-08 06:25 | 51.56111 | -0.17827 | 6008 ft | 276 kts | 19° |
| 2026-05-08 06:25 | 51.57996 | -0.17638 | 6020 ft | 276 kts | 343° |
| 2026-05-08 06:25 | 51.59628 | -0.19163 | 6034 ft | 274 kts | 315° |
| 2026-05-08 06:25 | 51.60999 | -0.21320 | 6041 ft | 279 kts | 318° |
| 2026-05-08 06:26 | 51.62538 | -0.23261 | 6252 ft | 282 kts | 322° |
| 2026-05-08 06:26 | 51.64060 | -0.25236 | 6993 ft | 279 kts | 320° |
| 2026-05-08 06:26 | 51.65604 | -0.27103 | 7758 ft | 277 kts | 324° |
| 2026-05-08 06:26 | 51.67206 | -0.28835 | 8446 ft | 278 kts | 325° |
| 2026-05-08 06:27 | 51.68841 | -0.30506 | 9077 ft | 280 kts | 326° |
| 2026-05-08 06:27 | 51.70508 | -0.32159 | 9721 ft | 282 kts | 326° |
| 2026-05-08 06:27 | 51.72194 | -0.33805 | 10324 ft | 285 kts | 326° |
| 2026-05-08 06:27 | 51.73946 | -0.35502 | 10539 ft | 303 kts | 327° |
| 2026-05-08 06:28 | 51.75812 | -0.37300 | 10698 ft | 322 kts | 327° |
| 2026-05-08 06:28 | 51.77795 | -0.39207 | 10823 ft | 342 kts | 327° |
| 2026-05-08 06:28 | 51.79898 | -0.41231 | 11021 ft | 361 kts | 327° |
| 2026-05-08 06:28 | 51.82091 | -0.43348 | 11471 ft | 372 kts | 327° |
| 2026-05-08 06:29 | 51.84331 | -0.45532 | 12060 ft | 380 kts | 327° |
| 2026-05-08 06:29 | 51.86606 | -0.47757 | 12759 ft | 384 kts | 327° |
| 2026-05-08 06:29 | 51.88907 | -0.50009 | 13486 ft | 388 kts | 327° |
| 2026-05-08 06:29 | 51.91225 | -0.52281 | 14149 ft | 392 kts | 327° |
| 2026-05-08 06:30 | 51.93577 | -0.54587 | 14753 ft | 397 kts | 327° |
| 2026-05-08 06:30 | 51.95948 | -0.56909 | 15359 ft | 401 kts | 327° |
| 2026-05-08 06:30 | 51.98346 | -0.59247 | 15972 ft | 404 kts | 327° |
| 2026-05-08 06:30 | 52.00766 | -0.61607 | 16562 ft | 408 kts | 327° |